PWSweather.com
Personal Weather Stations
Station Observations
KMILAPEE3
Lapeer Michigan, Lapeer, MI 48446

Lapeer MichiganLapeer, MI 48446

Lat: 43.057, Lon: -83.362

Elevation: 897

Station Type: Oregon Scientific WMR-968

Latest ConditionsUpdated 2:43:20 AM EDT Friday, Apr 25, 2014
Currently Today's Max Today's Min Today's Average
Temperature 44.2°F6.8°C 44.2°F6.8°C 43.3°F6.3°C 43.6°F6.4°C
Dew Point 11.3°F-11.5°C 13.6°F-10.2°C 10.8°F-11.8°C 12.8°F-10.7°C
Winds 15.1 mph ESE24.3 kmh ESE 15.1 mph ESE24.3 kmh ESE - 7.6 mph 12.2 kmh
Wind Gusts 23.4 mph37.7 kmh 23.4 mph37.7 kmh - -
Humidity 26% 29% 26% 28%
Pressure 29.85 in1010.8 mb 29.91 in1012.9 mb 29.85 in1010.8 mb -
Hour Temp Dew Point Humidity Winds Wind Gusts Pressure Precip Precip Rate Daily Precip Total
02:43 AM 44.2°F6.8°C 11.3°F-11.5°C 26% 15.1 mph ESE24.3 kmh ESE 23.4 mph37.7 kmh 29.85 in1010.8 mb 0.00 in0.0 mm 0.00 in/hr0.0 mm/hr 0.00 in0.0 mm
02:37 AM 44.2°F6.8°C 11.4°F-11.4°C 26% 10.7 mph ESE17.2 kmh ESE 18.1 mph29.1 kmh 29.88 in1011.9 mb 0.00 in0.0 mm 0.00 in/hr0.0 mm/hr 0.00 in0.0 mm
02:32 AM 44.2°F6.8°C 11.4°F-11.4°C 26% 9.7 mph SE15.6 kmh SE 18.1 mph29.1 kmh 29.88 in1011.9 mb 0.00 in0.0 mm 0.00 in/hr0.0 mm/hr 0.00 in0.0 mm
02:27 AM 44.1°F6.7°C 11.3°F-11.5°C 26% 8.9 mph SE14.3 kmh SE 18.1 mph29.1 kmh 29.88 in1011.9 mb 0.00 in0.0 mm 0.00 in/hr0.0 mm/hr 0.00 in0.0 mm
02:22 AM 44.1°F6.7°C 11.3°F-11.5°C 26% 10.0 mph ESE16.1 kmh ESE 18.1 mph29.1 kmh 29.88 in1011.9 mb 0.00 in0.0 mm 0.00 in/hr0.0 mm/hr 0.00 in0.0 mm
02:16 AM 43.9°F6.6°C 13.6°F-10.2°C 29% 8.7 mph SE14.0 kmh SE 11.4 mph18.3 kmh 29.88 in1011.9 mb 0.00 in0.0 mm 0.00 in/hr0.0 mm/hr 0.00 in0.0 mm
02:11 AM 43.7°F6.5°C 13.4°F-10.3°C 29% 7.2 mph ESE11.6 kmh ESE 12.0 mph19.3 kmh 29.91 in1012.9 mb 0.00 in0.0 mm 0.00 in/hr0.0 mm/hr 0.00 in0.0 mm
02:06 AM 43.7°F6.5°C 13.4°F-10.3°C 29% 6.8 mph ESE10.9 kmh ESE 12.0 mph19.3 kmh 29.91 in1012.9 mb 0.00 in0.0 mm 0.00 in/hr0.0 mm/hr 0.00 in0.0 mm
02:01 AM 43.5°F6.4°C 13.3°F-10.4°C 29% 6.1 mph ESE9.8 kmh ESE 10.4 mph16.7 kmh 29.91 in1012.9 mb 0.00 in0.0 mm 0.00 in/hr0.0 mm/hr 0.00 in0.0 mm
01:56 AM 43.3°F6.3°C 13.1°F-10.5°C 29% 5.4 mph ESE8.7 kmh ESE 8.7 mph14.0 kmh 29.91 in1012.9 mb 0.00 in0.0 mm 0.00 in/hr0.0 mm/hr 0.00 in0.0 mm
01:51 AM 43.3°F6.3°C 13.1°F-10.5°C 29% 5.1 mph ESE8.2 kmh ESE 8.7 mph14.0 kmh 29.91 in1012.9 mb 0.00 in0.0 mm 0.00 in/hr0.0 mm/hr 0.00 in0.0 mm
01:46 AM 43.3°F6.3°C 13.1°F-10.5°C 29% 4.3 mph ESE6.9 kmh ESE 8.7 mph14.0 kmh 29.91 in1012.9 mb 0.00 in0.0 mm 0.00 in/hr0.0 mm/hr 0.00 in0.0 mm
01:41 AM 43.3°F6.3°C 13.1°F-10.5°C 29% 2.8 mph SE4.5 kmh SE 6.7 mph10.8 kmh 29.91 in1012.9 mb 0.00 in0.0 mm 0.00 in/hr0.0 mm/hr 0.00 in0.0 mm
01:35 AM 43.3°F6.3°C 13.1°F-10.5°C 29% 3.6 mph SE5.8 kmh SE 6.7 mph10.8 kmh 29.91 in1012.9 mb 0.00 in0.0 mm 0.00 in/hr0.0 mm/hr 0.00 in0.0 mm
01:30 AM 43.3°F6.3°C 13.1°F-10.5°C 29% 2.8 mph SSE4.5 kmh SSE 5.5 mph8.9 kmh 29.91 in1012.9 mb 0.00 in0.0 mm 0.00 in/hr0.0 mm/hr 0.00 in0.0 mm
01:25 AM 43.3°F6.3°C 13.1°F-10.5°C 29% 3.9 mph SSE6.3 kmh SSE 6.7 mph10.8 kmh 29.91 in1012.9 mb 0.00 in0.0 mm 0.00 in/hr0.0 mm/hr 0.00 in0.0 mm
01:20 AM 43.3°F6.3°C 13.2°F-10.4°C 29% 3.9 mph SSE6.3 kmh SSE 8.0 mph12.9 kmh 29.91 in1012.9 mb 0.00 in0.0 mm 0.00 in/hr0.0 mm/hr 0.00 in0.0 mm
01:15 AM 43.3°F6.3°C 13.2°F-10.4°C 29% 3.2 mph SSE5.1 kmh SSE 8.0 mph12.9 kmh 29.91 in1012.9 mb 0.00 in0.0 mm 0.00 in/hr0.0 mm/hr 0.00 in0.0 mm
01:10 AM 43.5°F6.4°C 13.3°F-10.4°C 29% 4.3 mph SSE6.9 kmh SSE 7.4 mph11.9 kmh 29.91 in1012.9 mb 0.00 in0.0 mm 0.00 in/hr0.0 mm/hr 0.00 in0.0 mm
01:05 AM 43.7°F6.5°C 13.5°F-10.3°C 29% 2.9 mph SSE4.7 kmh SSE 8.7 mph14.0 kmh 29.91 in1012.9 mb 0.00 in0.0 mm 0.00 in/hr0.0 mm/hr 0.00 in0.0 mm
01:00 AM 43.7°F6.5°C 13.5°F-10.3°C 29% 4.3 mph SE6.9 kmh SE 12.0 mph19.3 kmh 29.91 in1012.9 mb 0.00 in0.0 mm 0.00 in/hr0.0 mm/hr 0.00 in0.0 mm
12:54 AM 43.7°F6.5°C 13.5°F-10.3°C 29% 4.5 mph SE7.2 kmh SE 15.7 mph25.3 kmh 29.91 in1012.9 mb 0.00 in0.0 mm 0.00 in/hr0.0 mm/hr 0.00 in0.0 mm
12:49 AM 43.7°F6.5°C 13.5°F-10.3°C 29% 10.0 mph ESE16.1 kmh ESE 15.7 mph25.3 kmh 29.91 in1012.9 mb 0.00 in0.0 mm 0.00 in/hr0.0 mm/hr 0.00 in0.0 mm
12:44 AM 43.7°F6.5°C 13.5°F-10.3°C 29% 9.3 mph ESE15.0 kmh ESE 15.1 mph24.3 kmh 29.91 in1012.9 mb 0.00 in0.0 mm 0.00 in/hr0.0 mm/hr 0.00 in0.0 mm
12:39 AM 43.5°F6.4°C 13.4°F-10.3°C 29% 10.4 mph ESE16.7 kmh ESE 18.1 mph29.1 kmh 29.88 in1011.9 mb 0.00 in0.0 mm 0.00 in/hr0.0 mm/hr 0.00 in0.0 mm
12:34 AM 43.5°F6.4°C 13.4°F-10.3°C 29% 13.3 mph ESE21.4 kmh ESE 19.9 mph32.0 kmh 29.88 in1011.9 mb 0.00 in0.0 mm 0.00 in/hr0.0 mm/hr 0.00 in0.0 mm
12:29 AM 43.3°F6.3°C 13.2°F-10.4°C 29% 11.3 mph E18.2 kmh E 19.9 mph32.0 kmh 29.88 in1011.9 mb 0.00 in0.0 mm 0.00 in/hr0.0 mm/hr 0.00 in0.0 mm
12:21 AM 43.3°F6.3°C 13.2°F-10.4°C 29% 11.7 mph E18.8 kmh E 17.6 mph28.3 kmh 29.91 in1012.9 mb 0.00 in0.0 mm 0.00 in/hr0.0 mm/hr 0.00 in0.0 mm
12:16 AM 43.3°F6.3°C 13.2°F-10.4°C 29% 9.9 mph E15.9 kmh E 16.9 mph27.2 kmh 29.91 in1012.9 mb 0.00 in0.0 mm 0.00 in/hr0.0 mm/hr 0.00 in0.0 mm
12:11 AM 43.3°F6.3°C 13.2°F-10.4°C 29% 9.3 mph E15.0 kmh E 17.6 mph28.3 kmh 29.91 in1012.9 mb 0.00 in0.0 mm 0.00 in/hr0.0 mm/hr 0.00 in0.0 mm
12:06 AM 43.3°F6.3°C 10.8°F-11.8°C 26% 11.3 mph E18.2 kmh E 20.6 mph33.2 kmh 29.91 in1012.9 mb 0.00 in0.0 mm 0.00 in/hr0.0 mm/hr 0.00 in0.0 mm
12:00 AM 43.3°F6.3°C 10.8°F-11.8°C 26% 12.5 mph E20.1 kmh E 20.6 mph33.2 kmh 29.91 in1012.9 mb 0.00 in0.0 mm 0.00 in/hr0.0 mm/hr 0.00 in0.0 mm